Terminal Aerodrome Forecast
Issued by NWS

Home | Current Version | Previous Version | Text Only | Print | Product List | Glossary On
Versions: 1 2 3 4 5 6 7 8 9 10 11 12 13 14 15 16 17 18 19 20
369
FTUS43 KOAX 260520
TAFSNY
TAF
KSNY 260520Z 2606/2706 17005KT P6SM SCT025
      TEMPO 2606/2610 OVC020
     FM261000 VRB05KT 4SM BR BKN025
     FM261500 24005KT P6SM SCT050
     FM262000 14005KT P6SM SKC=

USA.gov is the U.S. government's official web portal to all federal, state and local government web resources and services.